sensor_id;sensor_type;location;lat;lon;timestamp;temperature;humidity
9987;DHT22;5033;46.310;11.214;2022-09-27T00:00:02;14.80;99.90
9987;DHT22;5033;46.310;11.214;2022-09-27T00:02:29;14.80;99.90
9987;DHT22;5033;46.310;11.214;2022-09-27T00:04:58;14.80;99.90
9987;DHT22;5033;46.310;11.214;2022-09-27T00:07:25;14.80;99.90
9987;DHT22;5033;46.310;11.214;2022-09-27T00:09:52;14.80;99.90
9987;DHT22;5033;46.310;11.214;2022-09-27T00:12:19;14.80;99.90
9987;DHT22;5033;46.310;11.214;2022-09-27T00:14:46;14.80;99.90
9987;DHT22;5033;46.310;11.214;2022-09-27T00:17:13;14.70;99.90
9987;DHT22;5033;46.310;11.214;2022-09-27T00:19:40;14.70;99.90
9987;DHT22;5033;46.310;11.214;2022-09-27T00:22:09;14.70;99.90
9987;DHT22;5033;46.310;11.214;2022-09-27T00:24:36;14.70;99.90
9987;DHT22;5033;46.310;11.214;2022-09-27T00:27:03;14.70;99.90
9987;DHT22;5033;46.310;11.214;2022-09-27T00:29:31;14.70;99.90
9987;DHT22;5033;46.310;11.214;2022-09-27T00:31:58;14.80;99.90
9987;DHT22;5033;46.310;11.214;2022-09-27T00:34:25;14.80;99.90
9987;DHT22;5033;46.310;11.214;2022-09-27T00:36:52;14.80;99.90
9987;DHT22;5033;46.310;11.214;2022-09-27T00:39:21;14.80;99.90
9987;DHT22;5033;46.310;11.214;2022-09-27T00:41:48;14.80;99.90
9987;DHT22;5033;46.310;11.214;2022-09-27T00:47:36;14.70;99.90
9987;DHT22;5033;46.310;11.214;2022-09-27T00:50:19;14.70;99.90
9987;DHT22;5033;46.310;11.214;2022-09-27T00:52:53;14.70;99.90
9987;DHT22;5033;46.310;11.214;2022-09-27T00:55:27;14.60;99.90
9987;DHT22;5033;46.310;11.214;2022-09-27T00:57:55;14.60;99.90
9987;DHT22;5033;46.310;11.214;2022-09-27T01:00:23;14.50;99.90
9987;DHT22;5033;46.310;11.214;2022-09-27T01:02:52;14.50;99.90
9987;DHT22;5033;46.310;11.214;2022-09-27T01:05:23;14.50;99.90
9987;DHT22;5033;46.310;11.214;2022-09-27T01:07:51;14.50;99.90
9987;DHT22;5033;46.310;11.214;2022-09-27T01:10:23;14.50;99.90
9987;DHT22;5033;46.310;11.214;2022-09-27T01:12:57;14.40;99.90
9987;DHT22;5033;46.310;11.214;2022-09-27T01:15:31;14.40;99.90
9987;DHT22;5033;46.310;11.214;2022-09-27T01:18:14;14.40;99.90
9987;DHT22;5033;46.310;11.214;2022-09-27T01:21:18;14.30;99.90
9987;DHT22;5033;46.310;11.214;2022-09-27T01:24:10;14.30;99.90
9987;DHT22;5033;46.310;11.214;2022-09-27T01:27:02;14.30;99.90
9987;DHT22;5033;46.310;11.214;2022-09-27T01:29:36;14.30;99.90
9987;DHT22;5033;46.310;11.214;2022-09-27T01:32:16;14.30;99.90
9987;DHT22;5033;46.310;11.214;2022-09-27T01:34:47;14.30;99.90
9987;DHT22;5033;46.310;11.214;2022-09-27T01:37:23;14.20;99.90
9987;DHT22;5033;46.310;11.214;2022-09-27T01:39:58;14.20;99.90
9987;DHT22;5033;46.310;11.214;2022-09-27T01:42:30;14.20;99.90
9987;DHT22;5033;46.310;11.214;2022-09-27T01:45:01;14.20;99.90
9987;DHT22;5033;46.310;11.214;2022-09-27T01:47:34;14.10;99.90
9987;DHT22;5033;46.310;11.214;2022-09-27T01:50:07;14.10;99.90
9987;DHT22;5033;46.310;11.214;2022-09-27T01:52:38;14.10;99.90
9987;DHT22;5033;46.310;11.214;2022-09-27T01:55:09;14.10;99.90
9987;DHT22;5033;46.310;11.214;2022-09-27T01:57:39;14.00;99.90
9987;DHT22;5033;46.310;11.214;2022-09-27T02:00:10;14.00;99.90
9987;DHT22;5033;46.310;11.214;2022-09-27T02:02:40;14.10;99.90
9987;DHT22;5033;46.310;11.214;2022-09-27T02:05:11;14.10;99.90
9987;DHT22;5033;46.310;11.214;2022-09-27T02:07:45;14.10;99.90
9987;DHT22;5033;46.310;11.214;2022-09-27T02:10:18;14.10;99.90
9987;DHT22;5033;46.310;11.214;2022-09-27T02:12:52;14.10;99.90
9987;DHT22;5033;46.310;11.214;2022-09-27T02:15:23;14.10;99.90
9987;DHT22;5033;46.310;11.214;2022-09-27T02:17:55;14.00;99.90
9987;DHT22;5033;46.310;11.214;2022-09-27T02:20:29;14.00;99.90
9987;DHT22;5033;46.310;11.214;2022-09-27T02:23:04;14.00;99.90
9987;DHT22;5033;46.310;11.214;2022-09-27T02:25:39;14.00;99.90
9987;DHT22;5033;46.310;11.214;2022-09-27T02:28:16;14.00;99.90
9987;DHT22;5033;46.310;11.214;2022-09-27T02:30:47;14.00;99.90
9987;DHT22;5033;46.310;11.214;2022-09-27T02:33:17;14.00;99.90
9987;DHT22;5033;46.310;11.214;2022-09-27T02:35:45;13.90;99.90
9987;DHT22;5033;46.310;11.214;2022-09-27T02:38:12;13.90;99.90
9987;DHT22;5033;46.310;11.214;2022-09-27T02:40:43;13.80;99.90
9987;DHT22;5033;46.310;11.214;2022-09-27T02:43:11;13.80;99.90
9987;DHT22;5033;46.310;11.214;2022-09-27T02:45:45;13.80;99.90
9987;DHT22;5033;46.310;11.214;2022-09-27T02:48:23;13.80;99.90
9987;DHT22;5033;46.310;11.214;2022-09-27T02:51:05;13.80;99.90
9987;DHT22;5033;46.310;11.214;2022-09-27T02:53:44;13.80;99.90
9987;DHT22;5033;46.310;11.214;2022-09-27T02:56:23;13.80;99.90
9987;DHT22;5033;46.310;11.214;2022-09-27T02:59:00;13.70;99.90
9987;DHT22;5033;46.310;11.214;2022-09-27T03:01:36;13.70;99.90
9987;DHT22;5033;46.310;11.214;2022-09-27T03:04:11;13.70;99.90
9987;DHT22;5033;46.310;11.214;2022-09-27T03:06:44;13.70;99.90
9987;DHT22;5033;46.310;11.214;2022-09-27T03:09:19;13.60;99.90
9987;DHT22;5033;46.310;11.214;2022-09-27T03:11:46;13.50;99.90
9987;DHT22;5033;46.310;11.214;2022-09-27T03:14:13;13.30;99.90
9987;DHT22;5033;46.310;11.214;2022-09-27T03:16:40;13.20;99.90
9987;DHT22;5033;46.310;11.214;2022-09-27T03:19:09;13.10;99.90
9987;DHT22;5033;46.310;11.214;2022-09-27T03:21:36;13.10;99.90
9987;DHT22;5033;46.310;11.214;2022-09-27T03:24:04;13.10;99.90
9987;DHT22;5033;46.310;11.214;2022-09-27T03:26:31;13.10;99.90
9987;DHT22;5033;46.310;11.214;2022-09-27T03:28:58;13.10;99.90
9987;DHT22;5033;46.310;11.214;2022-09-27T03:31:26;13.10;99.90
9987;DHT22;5033;46.310;11.214;2022-09-27T03:33:53;13.10;99.90
9987;DHT22;5033;46.310;11.214;2022-09-27T03:36:21;13.10;99.90
9987;DHT22;5033;46.310;11.214;2022-09-27T03:38:48;13.20;99.90
9987;DHT22;5033;46.310;11.214;2022-09-27T03:41:16;13.20;99.90
9987;DHT22;5033;46.310;11.214;2022-09-27T03:43:43;13.20;99.90
9987;DHT22;5033;46.310;11.214;2022-09-27T03:46:10;13.20;99.90
9987;DHT22;5033;46.310;11.214;2022-09-27T03:48:37;13.10;99.90
9987;DHT22;5033;46.310;11.214;2022-09-27T03:51:04;13.10;99.90
9987;DHT22;5033;46.310;11.214;2022-09-27T03:53:32;13.10;99.90
9987;DHT22;5033;46.310;11.214;2022-09-27T03:56:01;13.00;99.90
9987;DHT22;5033;46.310;11.214;2022-09-27T03:58:28;13.10;99.90
9987;DHT22;5033;46.310;11.214;2022-09-27T04:00:55;13.10;99.90
9987;DHT22;5033;46.310;11.214;2022-09-27T04:03:22;13.10;99.90
9987;DHT22;5033;46.310;11.214;2022-09-27T04:05:51;13.10;99.90
9987;DHT22;5033;46.310;11.214;2022-09-27T04:08:19;13.10;99.90
9987;DHT22;5033;46.310;11.214;2022-09-27T04:10:48;13.10;99.90
9987;DHT22;5033;46.310;11.214;2022-09-27T04:13:15;13.10;99.90
9987;DHT22;5033;46.310;11.214;2022-09-27T04:15:42;13.10;99.90
9987;DHT22;5033;46.310;11.214;2022-09-27T04:18:09;13.10;99.90
9987;DHT22;5033;46.310;11.214;2022-09-27T04:20:36;13.10;99.90
9987;DHT22;5033;46.310;11.214;2022-09-27T04:23:03;13.10;99.90
9987;DHT22;5033;46.310;11.214;2022-09-27T04:25:31;13.10;99.90
9987;DHT22;5033;46.310;11.214;2022-09-27T04:27:59;13.20;99.90
9987;DHT22;5033;46.310;11.214;2022-09-27T04:30:28;13.20;99.90
9987;DHT22;5033;46.310;11.214;2022-09-27T04:32:55;13.20;99.90
9987;DHT22;5033;46.310;11.214;2022-09-27T04:35:22;13.20;99.90
9987;DHT22;5033;46.310;11.214;2022-09-27T04:38:07;13.20;99.90
9987;DHT22;5033;46.310;11.214;2022-09-27T04:40:34;13.20;99.90
9987;DHT22;5033;46.310;11.214;2022-09-27T04:43:03;13.20;99.90
9987;DHT22;5033;46.310;11.214;2022-09-27T04:45:30;13.20;99.90
9987;DHT22;5033;46.310;11.214;2022-09-27T04:47:58;13.20;99.90
9987;DHT22;5033;46.310;11.214;2022-09-27T04:50:25;13.20;99.90
9987;DHT22;5033;46.310;11.214;2022-09-27T04:52:53;13.20;99.90
9987;DHT22;5033;46.310;11.214;2022-09-27T04:55:21;13.20;99.90
9987;DHT22;5033;46.310;11.214;2022-09-27T04:57:48;13.20;99.90
9987;DHT22;5033;46.310;11.214;2022-09-27T05:00:17;13.20;99.90
9987;DHT22;5033;46.310;11.214;2022-09-27T05:02:45;13.20;99.90
9987;DHT22;5033;46.310;11.214;2022-09-27T05:05:13;13.20;99.90
9987;DHT22;5033;46.310;11.214;2022-09-27T05:07:40;13.20;99.90
9987;DHT22;5033;46.310;11.214;2022-09-27T05:10:08;13.20;99.90
9987;DHT22;5033;46.310;11.214;2022-09-27T05:12:35;13.20;99.90
9987;DHT22;5033;46.310;11.214;2022-09-27T05:15:03;13.20;99.90
9987;DHT22;5033;46.310;11.214;2022-09-27T05:17:32;13.20;99.90
9987;DHT22;5033;46.310;11.214;2022-09-27T05:19:59;13.20;99.90
9987;DHT22;5033;46.310;11.214;2022-09-27T05:22:26;13.20;99.90
9987;DHT22;5033;46.310;11.214;2022-09-27T05:24:54;13.20;99.90
9987;DHT22;5033;46.310;11.214;2022-09-27T05:27:21;13.30;99.90
9987;DHT22;5033;46.310;11.214;2022-09-27T05:29:48;13.30;99.90
9987;DHT22;5033;46.310;11.214;2022-09-27T05:32:15;13.30;99.90
9987;DHT22;5033;46.310;11.214;2022-09-27T05:34:44;13.20;99.90
9987;DHT22;5033;46.310;11.214;2022-09-27T05:37:11;13.20;99.90
9987;DHT22;5033;46.310;11.214;2022-09-27T05:39:38;13.20;99.90
9987;DHT22;5033;46.310;11.214;2022-09-27T05:42:06;13.20;99.90
9987;DHT22;5033;46.310;11.214;2022-09-27T05:44:35;13.10;99.90
9987;DHT22;5033;46.310;11.214;2022-09-27T05:47:03;13.10;99.90
9987;DHT22;5033;46.310;11.214;2022-09-27T05:49:30;13.10;99.90
9987;DHT22;5033;46.310;11.214;2022-09-27T05:51:59;13.10;99.90
9987;DHT22;5033;46.310;11.214;2022-09-27T05:54:26;13.10;99.90
9987;DHT22;5033;46.310;11.214;2022-09-27T05:56:54;13.20;99.90
9987;DHT22;5033;46.310;11.214;2022-09-27T05:59:23;13.20;99.90
9987;DHT22;5033;46.310;11.214;2022-09-27T06:01:51;13.20;99.90
9987;DHT22;5033;46.310;11.214;2022-09-27T06:04:18;13.20;99.90
9987;DHT22;5033;46.310;11.214;2022-09-27T06:06:46;13.20;99.90
9987;DHT22;5033;46.310;11.214;2022-09-27T06:09:15;13.20;99.90
9987;DHT22;5033;46.310;11.214;2022-09-27T06:11:43;13.20;99.90
9987;DHT22;5033;46.310;11.214;2022-09-27T06:14:11;13.10;99.90
9987;DHT22;5033;46.310;11.214;2022-09-27T06:16:38;13.10;99.90
9987;DHT22;5033;46.310;11.214;2022-09-27T06:19:05;13.10;99.90
9987;DHT22;5033;46.310;11.214;2022-09-27T06:21:33;13.10;99.90
9987;DHT22;5033;46.310;11.214;2022-09-27T06:24:00;13.20;99.90
9987;DHT22;5033;46.310;11.214;2022-09-27T06:26:29;13.30;99.90
9987;DHT22;5033;46.310;11.214;2022-09-27T06:28:56;13.40;99.90
9987;DHT22;5033;46.310;11.214;2022-09-27T06:31:23;13.40;99.90
9987;DHT22;5033;46.310;11.214;2022-09-27T06:33:50;13.40;99.90
9987;DHT22;5033;46.310;11.214;2022-09-27T06:36:17;13.40;99.90
9987;DHT22;5033;46.310;11.214;2022-09-27T06:38:45;13.40;99.90
9987;DHT22;5033;46.310;11.214;2022-09-27T06:41:13;13.40;99.90
9987;DHT22;5033;46.310;11.214;2022-09-27T06:43:42;13.30;99.90
9987;DHT22;5033;46.310;11.214;2022-09-27T06:46:10;13.30;99.90
9987;DHT22;5033;46.310;11.214;2022-09-27T06:48:37;13.30;99.90
9987;DHT22;5033;46.310;11.214;2022-09-27T06:51:05;13.40;99.90
9987;DHT22;5033;46.310;11.214;2022-09-27T06:53:32;13.40;99.90
9987;DHT22;5033;46.310;11.214;2022-09-27T06:56:00;13.50;99.90
9987;DHT22;5033;46.310;11.214;2022-09-27T06:58:27;13.60;99.90
9987;DHT22;5033;46.310;11.214;2022-09-27T07:01:28;13.70;99.90
9987;DHT22;5033;46.310;11.214;2022-09-27T07:03:55;13.80;99.90
9987;DHT22;5033;46.310;11.214;2022-09-27T07:06:24;13.90;99.90
9987;DHT22;5033;46.310;11.214;2022-09-27T07:08:51;13.90;99.90
9987;DHT22;5033;46.310;11.214;2022-09-27T07:11:19;14.00;99.90
9987;DHT22;5033;46.310;11.214;2022-09-27T07:13:48;14.00;99.90
9987;DHT22;5033;46.310;11.214;2022-09-27T07:16:16;14.10;99.90
9987;DHT22;5033;46.310;11.214;2022-09-27T07:18:47;14.10;99.90
9987;DHT22;5033;46.310;11.214;2022-09-27T07:21:15;14.10;99.90
9987;DHT22;5033;46.310;11.214;2022-09-27T07:23:42;14.00;99.90
9987;DHT22;5033;46.310;11.214;2022-09-27T07:26:09;14.00;99.90
9987;DHT22;5033;46.310;11.214;2022-09-27T07:28:37;14.00;99.90
9987;DHT22;5033;46.310;11.214;2022-09-27T07:31:07;13.90;99.90
9987;DHT22;5033;46.310;11.214;2022-09-27T07:33:34;13.90;99.90
9987;DHT22;5033;46.310;11.214;2022-09-27T07:36:07;13.80;99.90
9987;DHT22;5033;46.310;11.214;2022-09-27T07:38:35;13.70;99.90
9987;DHT22;5033;46.310;11.214;2022-09-27T07:41:06;13.60;99.90
9987;DHT22;5033;46.310;11.214;2022-09-27T07:43:33;13.60;99.90
9987;DHT22;5033;46.310;11.214;2022-09-27T07:46:00;13.60;99.90
9987;DHT22;5033;46.310;11.214;2022-09-27T07:48:27;13.50;99.90
9987;DHT22;5033;46.310;11.214;2022-09-27T07:50:54;13.50;99.90
9987;DHT22;5033;46.310;11.214;2022-09-27T07:53:23;13.60;99.90
9987;DHT22;5033;46.310;11.214;2022-09-27T07:55:51;13.60;99.90
9987;DHT22;5033;46.310;11.214;2022-09-27T07:58:19;13.60;99.90
9987;DHT22;5033;46.310;11.214;2022-09-27T08:00:46;13.60;99.90
9987;DHT22;5033;46.310;11.214;2022-09-27T08:03:15;13.60;99.90
9987;DHT22;5033;46.310;11.214;2022-09-27T08:05:42;13.60;99.90
9987;DHT22;5033;46.310;11.214;2022-09-27T08:08:10;13.70;99.90
9987;DHT22;5033;46.310;11.214;2022-09-27T08:10:38;13.60;99.90
9987;DHT22;5033;46.310;11.214;2022-09-27T08:13:11;13.70;99.90
9987;DHT22;5033;46.310;11.214;2022-09-27T08:15:39;13.70;99.90
9987;DHT22;5033;46.310;11.214;2022-09-27T08:18:06;13.80;99.90
9987;DHT22;5033;46.310;11.214;2022-09-27T08:20:34;13.90;99.90
9987;DHT22;5033;46.310;11.214;2022-09-27T08:23:02;14.10;99.90
9987;DHT22;5033;46.310;11.214;2022-09-27T08:25:30;14.30;99.90
9987;DHT22;5033;46.310;11.214;2022-09-27T08:28:00;14.40;99.90
9987;DHT22;5033;46.310;11.214;2022-09-27T08:30:29;14.50;99.90
9987;DHT22;5033;46.310;11.214;2022-09-27T08:32:59;14.60;99.90
9987;DHT22;5033;46.310;11.214;2022-09-27T08:35:27;14.60;99.90
9987;DHT22;5033;46.310;11.214;2022-09-27T08:37:55;14.50;99.90
9987;DHT22;5033;46.310;11.214;2022-09-27T08:40:34;14.50;99.90
9987;DHT22;5033;46.310;11.214;2022-09-27T08:43:10;14.30;99.90
9987;DHT22;5033;46.310;11.214;2022-09-27T08:45:54;14.10;99.90
9987;DHT22;5033;46.310;11.214;2022-09-27T08:48:26;14.00;99.90
9987;DHT22;5033;46.310;11.214;2022-09-27T08:50:54;14.00;99.90
9987;DHT22;5033;46.310;11.214;2022-09-27T08:53:24;14.00;99.90
9987;DHT22;5033;46.310;11.214;2022-09-27T08:55:54;14.10;99.90
9987;DHT22;5033;46.310;11.214;2022-09-27T08:58:25;14.00;99.90
9987;DHT22;5033;46.310;11.214;2022-09-27T09:00:56;13.90;99.90
9987;DHT22;5033;46.310;11.214;2022-09-27T09:03:27;13.90;99.90
9987;DHT22;5033;46.310;11.214;2022-09-27T09:06:08;13.90;99.90
9987;DHT22;5033;46.310;11.214;2022-09-27T09:08:45;13.90;99.90
9987;DHT22;5033;46.310;11.214;2022-09-27T09:11:23;13.90;99.90
9987;DHT22;5033;46.310;11.214;2022-09-27T09:14:42;14.00;99.90
9987;DHT22;5033;46.310;11.214;2022-09-27T09:17:19;14.10;99.90
9987;DHT22;5033;46.310;11.214;2022-09-27T09:20:02;14.20;99.90
9987;DHT22;5033;46.310;11.214;2022-09-27T09:22:45;14.20;99.90
9987;DHT22;5033;46.310;11.214;2022-09-27T09:25:28;14.20;99.90
9987;DHT22;5033;46.310;11.214;2022-09-27T09:28:08;14.20;99.90
9987;DHT22;5033;46.310;11.214;2022-09-27T09:30:49;14.30;99.90
9987;DHT22;5033;46.310;11.214;2022-09-27T09:33:24;14.40;99.90
9987;DHT22;5033;46.310;11.214;2022-09-27T09:35:56;14.50;99.90
9987;DHT22;5033;46.310;11.214;2022-09-27T09:38:32;14.50;99.90
9987;DHT22;5033;46.310;11.214;2022-09-27T09:41:05;14.50;99.90
9987;DHT22;5033;46.310;11.214;2022-09-27T09:43:37;14.60;99.90
9987;DHT22;5033;46.310;11.214;2022-09-27T09:46:10;14.70;99.90
9987;DHT22;5033;46.310;11.214;2022-09-27T09:48:43;14.80;99.90
9987;DHT22;5033;46.310;11.214;2022-09-27T09:51:17;14.90;99.90
9987;DHT22;5033;46.310;11.214;2022-09-27T09:53:52;14.90;99.90
9987;DHT22;5033;46.310;11.214;2022-09-27T09:56:23;15.00;99.90
9987;DHT22;5033;46.310;11.214;2022-09-27T09:58:54;15.10;99.90
9987;DHT22;5033;46.310;11.214;2022-09-27T10:01:26;15.30;99.90
9987;DHT22;5033;46.310;11.214;2022-09-27T10:03:54;15.50;99.90
9987;DHT22;5033;46.310;11.214;2022-09-27T10:06:23;15.60;99.90
9987;DHT22;5033;46.310;11.214;2022-09-27T10:08:51;15.60;99.90
9987;DHT22;5033;46.310;11.214;2022-09-27T10:11:23;15.80;99.90
9987;DHT22;5033;46.310;11.214;2022-09-27T10:13:52;15.90;99.90
9987;DHT22;5033;46.310;11.214;2022-09-27T10:16:23;16.00;99.90
9987;DHT22;5033;46.310;11.214;2022-09-27T10:18:56;16.10;99.90
9987;DHT22;5033;46.310;11.214;2022-09-27T10:21:28;16.30;99.90
9987;DHT22;5033;46.310;11.214;2022-09-27T10:24:07;16.30;99.90
9987;DHT22;5033;46.310;11.214;2022-09-27T10:26:35;16.60;99.90
9987;DHT22;5033;46.310;11.214;2022-09-27T10:29:31;16.70;99.90
9987;DHT22;5033;46.310;11.214;2022-09-27T10:32:01;17.00;99.90
9987;DHT22;5033;46.310;11.214;2022-09-27T10:34:32;17.70;99.90
9987;DHT22;5033;46.310;11.214;2022-09-27T10:37:13;18.00;99.90
9987;DHT22;5033;46.310;11.214;2022-09-27T10:39:43;18.40;99.90
9987;DHT22;5033;46.310;11.214;2022-09-27T10:42:21;18.70;99.90
9987;DHT22;5033;46.310;11.214;2022-09-27T10:44:50;18.80;99.90
9987;DHT22;5033;46.310;11.214;2022-09-27T10:47:22;18.60;99.90
9987;DHT22;5033;46.310;11.214;2022-09-27T10:49:51;18.30;99.90
9987;DHT22;5033;46.310;11.214;2022-09-27T10:52:28;18.30;99.90
9987;DHT22;5033;46.310;11.214;2022-09-27T10:54:56;18.70;99.90
9987;DHT22;5033;46.310;11.214;2022-09-27T10:57:25;19.20;99.90
9987;DHT22;5033;46.310;11.214;2022-09-27T10:59:58;19.80;99.90
9987;DHT22;5033;46.310;11.214;2022-09-27T11:02:30;20.30;99.90
9987;DHT22;5033;46.310;11.214;2022-09-27T11:05:07;20.50;99.90
9987;DHT22;5033;46.310;11.214;2022-09-27T11:07:36;20.70;99.90
9987;DHT22;5033;46.310;11.214;2022-09-27T11:10:23;20.80;99.90
9987;DHT22;5033;46.310;11.214;2022-09-27T11:13:11;20.70;99.90
9987;DHT22;5033;46.310;11.214;2022-09-27T11:15:50;20.70;99.90
9987;DHT22;5033;46.310;11.214;2022-09-27T11:18:27;20.70;99.90
9987;DHT22;5033;46.310;11.214;2022-09-27T11:21:03;20.30;99.90
9987;DHT22;5033;46.310;11.214;2022-09-27T11:23:41;19.80;99.90
9987;DHT22;5033;46.310;11.214;2022-09-27T11:26:28;19.70;99.90
9987;DHT22;5033;46.310;11.214;2022-09-27T11:29:09;19.50;99.90
9987;DHT22;5033;46.310;11.214;2022-09-27T11:31:42;19.40;99.90
9987;DHT22;5033;46.310;11.214;2022-09-27T11:34:32;19.30;99.90
9987;DHT22;5033;46.310;11.214;2022-09-27T11:37:14;19.30;99.90
9987;DHT22;5033;46.310;11.214;2022-09-27T11:39:58;19.30;99.90
9987;DHT22;5033;46.310;11.214;2022-09-27T11:42:47;19.40;99.90
9987;DHT22;5033;46.310;11.214;2022-09-27T11:45:30;19.70;99.90
9987;DHT22;5033;46.310;11.214;2022-09-27T11:48:10;19.90;99.90
9987;DHT22;5033;46.310;11.214;2022-09-27T11:51:11;19.80;99.90
9987;DHT22;5033;46.310;11.214;2022-09-27T11:53:58;19.70;99.90
9987;DHT22;5033;46.310;11.214;2022-09-27T11:56:38;19.70;99.90
9987;DHT22;5033;46.310;11.214;2022-09-27T11:59:30;19.90;99.90
9987;DHT22;5033;46.310;11.214;2022-09-27T12:02:07;20.00;99.90
9987;DHT22;5033;46.310;11.214;2022-09-27T12:04:59;20.00;99.90
9987;DHT22;5033;46.310;11.214;2022-09-27T12:07:38;19.70;99.90
9987;DHT22;5033;46.310;11.214;2022-09-27T12:10:11;19.60;99.90
9987;DHT22;5033;46.310;11.214;2022-09-27T12:12:40;19.30;99.90
9987;DHT22;5033;46.310;11.214;2022-09-27T12:15:14;18.90;99.90
9987;DHT22;5033;46.310;11.214;2022-09-27T12:17:45;18.80;99.90
9987;DHT22;5033;46.310;11.214;2022-09-27T12:20:19;18.80;99.90
9987;DHT22;5033;46.310;11.214;2022-09-27T12:22:54;18.70;99.90
9987;DHT22;5033;46.310;11.214;2022-09-27T12:25:25;18.90;99.90
9987;DHT22;5033;46.310;11.214;2022-09-27T12:27:57;19.10;99.90
9987;DHT22;5033;46.310;11.214;2022-09-27T12:30:28;19.30;99.90
9987;DHT22;5033;46.310;11.214;2022-09-27T12:33:07;19.50;99.90
9987;DHT22;5033;46.310;11.214;2022-09-27T12:35:43;19.70;99.90
9987;DHT22;5033;46.310;11.214;2022-09-27T12:38:16;19.90;99.90
9987;DHT22;5033;46.310;11.214;2022-09-27T12:40:47;20.00;99.90
9987;DHT22;5033;46.310;11.214;2022-09-27T12:43:18;19.80;99.90
9987;DHT22;5033;46.310;11.214;2022-09-27T12:45:55;19.70;99.90
9987;DHT22;5033;46.310;11.214;2022-09-27T12:48:33;19.70;99.90
9987;DHT22;5033;46.310;11.214;2022-09-27T12:51:07;19.80;99.90
9987;DHT22;5033;46.310;11.214;2022-09-27T12:53:53;19.90;99.90
9987;DHT22;5033;46.310;11.214;2022-09-27T12:56:33;20.20;99.90
9987;DHT22;5033;46.310;11.214;2022-09-27T13:02:26;20.30;99.90
9987;DHT22;5033;46.310;11.214;2022-09-27T13:05:07;20.30;99.90
9987;DHT22;5033;46.310;11.214;2022-09-27T13:07:52;20.20;99.90
9987;DHT22;5033;46.310;11.214;2022-09-27T13:10:43;20.30;99.90
9987;DHT22;5033;46.310;11.214;2022-09-27T13:13:16;20.50;99.90
9987;DHT22;5033;46.310;11.214;2022-09-27T13:15:45;20.70;99.90
9987;DHT22;5033;46.310;11.214;2022-09-27T13:18:30;21.00;99.90
9987;DHT22;5033;46.310;11.214;2022-09-27T13:20:57;21.30;99.90
9987;DHT22;5033;46.310;11.214;2022-09-27T13:23:48;21.40;99.90
9987;DHT22;5033;46.310;11.214;2022-09-27T13:26:45;21.50;99.90
9987;DHT22;5033;46.310;11.214;2022-09-27T13:29:25;21.60;99.90
9987;DHT22;5033;46.310;11.214;2022-09-27T13:32:25;21.60;99.90
9987;DHT22;5033;46.310;11.214;2022-09-27T13:34:53;21.30;99.90
9987;DHT22;5033;46.310;11.214;2022-09-27T13:37:36;21.10;99.90
9987;DHT22;5033;46.310;11.214;2022-09-27T13:40:29;21.30;99.90
9987;DHT22;5033;46.310;11.214;2022-09-27T13:46:17;21.40;99.90
9987;DHT22;5033;46.310;11.214;2022-09-27T13:48:49;21.40;99.90
9987;DHT22;5033;46.310;11.214;2022-09-27T13:51:33;21.30;99.90
9987;DHT22;5033;46.310;11.214;2022-09-27T13:54:04;21.40;99.90
9987;DHT22;5033;46.310;11.214;2022-09-27T13:56:52;21.60;99.90
9987;DHT22;5033;46.310;11.214;2022-09-27T13:59:25;21.70;99.90
9987;DHT22;5033;46.310;11.214;2022-09-27T14:02:02;21.80;99.90
9987;DHT22;5033;46.310;11.214;2022-09-27T14:04:34;21.90;99.90
9987;DHT22;5033;46.310;11.214;2022-09-27T14:07:03;21.80;99.90
9987;DHT22;5033;46.310;11.214;2022-09-27T14:09:33;21.80;99.90
9987;DHT22;5033;46.310;11.214;2022-09-27T14:12:05;21.80;99.90
9987;DHT22;5033;46.310;11.214;2022-09-27T14:14:35;21.60;99.90
9987;DHT22;5033;46.310;11.214;2022-09-27T14:17:07;21.20;99.90
9987;DHT22;5033;46.310;11.214;2022-09-27T14:19:39;20.90;99.90
9987;DHT22;5033;46.310;11.214;2022-09-27T14:22:11;20.70;99.90
9987;DHT22;5033;46.310;11.214;2022-09-27T14:24:44;20.70;99.90
9987;DHT22;5033;46.310;11.214;2022-09-27T14:27:13;20.80;99.90
9987;DHT22;5033;46.310;11.214;2022-09-27T14:29:45;21.00;99.90
9987;DHT22;5033;46.310;11.214;2022-09-27T14:32:15;21.10;99.90
9987;DHT22;5033;46.310;11.214;2022-09-27T14:34:42;21.00;99.90
9987;DHT22;5033;46.310;11.214;2022-09-27T14:37:23;21.00;99.90
9987;DHT22;5033;46.310;11.214;2022-09-27T14:39:58;20.90;99.90
9987;DHT22;5033;46.310;11.214;2022-09-27T14:42:32;20.80;99.90
9987;DHT22;5033;46.310;11.214;2022-09-27T14:45:06;20.70;99.90
9987;DHT22;5033;46.310;11.214;2022-09-27T14:47:46;20.70;99.90
9987;DHT22;5033;46.310;11.214;2022-09-27T14:50:18;20.80;99.90
9987;DHT22;5033;46.310;11.214;2022-09-27T14:52:45;20.80;99.90
9987;DHT22;5033;46.310;11.214;2022-09-27T14:55:16;20.70;99.90
9987;DHT22;5033;46.310;11.214;2022-09-27T14:57:50;20.60;99.90
9987;DHT22;5033;46.310;11.214;2022-09-27T15:00:19;20.60;99.90
9987;DHT22;5033;46.310;11.214;2022-09-27T15:02:50;20.50;99.90
9987;DHT22;5033;46.310;11.214;2022-09-27T15:05:21;20.30;99.90
9987;DHT22;5033;46.310;11.214;2022-09-27T15:07:49;20.10;99.90
9987;DHT22;5033;46.310;11.214;2022-09-27T15:10:18;20.20;99.90
9987;DHT22;5033;46.310;11.214;2022-09-27T15:12:49;20.20;99.90
9987;DHT22;5033;46.310;11.214;2022-09-27T15:15:21;20.20;99.90
9987;DHT22;5033;46.310;11.214;2022-09-27T15:17:51;20.20;99.90
9987;DHT22;5033;46.310;11.214;2022-09-27T15:20:21;20.20;99.90
9987;DHT22;5033;46.310;11.214;2022-09-27T15:22:49;20.20;99.90
9987;DHT22;5033;46.310;11.214;2022-09-27T15:25:35;20.10;99.90
9987;DHT22;5033;46.310;11.214;2022-09-27T15:28:04;20.00;99.90
9987;DHT22;5033;46.310;11.214;2022-09-27T15:30:36;19.90;99.90
9987;DHT22;5033;46.310;11.214;2022-09-27T15:33:06;19.70;99.90
9987;DHT22;5033;46.310;11.214;2022-09-27T15:35:48;19.60;99.90
9987;DHT22;5033;46.310;11.214;2022-09-27T15:38:26;19.50;99.90
9987;DHT22;5033;46.310;11.214;2022-09-27T15:41:04;19.30;99.90
9987;DHT22;5033;46.310;11.214;2022-09-27T15:43:35;19.20;99.90
9987;DHT22;5033;46.310;11.214;2022-09-27T15:49:20;18.90;99.90
9987;DHT22;5033;46.310;11.214;2022-09-27T15:51:49;18.80;99.90
9987;DHT22;5033;46.310;11.214;2022-09-27T15:54:19;18.60;99.90
9987;DHT22;5033;46.310;11.214;2022-09-27T15:56:47;18.40;99.90
9987;DHT22;5033;46.310;11.214;2022-09-27T15:59:19;18.30;99.90
9987;DHT22;5033;46.310;11.214;2022-09-27T16:01:53;18.20;99.90
9987;DHT22;5033;46.310;11.214;2022-09-27T16:04:22;18.10;99.90
9987;DHT22;5033;46.310;11.214;2022-09-27T16:06:49;18.10;99.90
9987;DHT22;5033;46.310;11.214;2022-09-27T16:09:18;18.00;99.90
9987;DHT22;5033;46.310;11.214;2022-09-27T16:11:46;18.00;99.90
9987;DHT22;5033;46.310;11.214;2022-09-27T16:14:14;17.90;99.90
9987;DHT22;5033;46.310;11.214;2022-09-27T16:16:44;17.90;99.90
9987;DHT22;5033;46.310;11.214;2022-09-27T16:19:12;17.90;99.90
9987;DHT22;5033;46.310;11.214;2022-09-27T16:21:41;17.80;99.90
9987;DHT22;5033;46.310;11.214;2022-09-27T16:24:09;17.80;99.90
9987;DHT22;5033;46.310;11.214;2022-09-27T16:26:36;17.80;99.90
9987;DHT22;5033;46.310;11.214;2022-09-27T16:29:04;17.80;99.90